Gassetts, Vermont
Current Conditions -  °F | °C
As of 5:54 PM on Thursday 20 Nov 2014 (Local Time) from KVSF Reporting Station
Few Clouds Few Clouds  
Wind Chill: 22°   Ceiling: Unl
Heat Index: 30°   Visibility: 10mi
Dew Point: 13°   Wind: 9mph
Humidity: 49%   Direction: 260°W
Pressure: 29.84"   Gusts: NA
Location:  43.3606°N, 72.5739°W
Report Text: KVSF 202254Z AUTO 26008KT 10SM FEW055 M01/M11 A2984 RMK AO2 SLP115 T10111106
Loading
Personal Weather Stations






























Interactive Weather Map New forecast layout! Learn more

10-Day Weather Forecast

Advertisements
Track Severe Weather on mobile